Terminal Aerodrome Forecast
Issued by NWS

Home | Current Version | Previous Version | Text Only | Print | Product List | Glossary On
Versions: 1 2 3 4 5 6 7 8 9 10 11 12 13 14
000
FTUS44 KTSA 141724
TAFMLC
TAF
KMLC 141724Z 1418/1518 36010KT P6SM SCT250
     FM150100 VRB03KT P6SM SCT040 SCT150
     FM151600 31007KT P6SM SKC=

USA.gov is the U.S. government's official web portal to all federal, state and local government web resources and services.